Time;durP1;ratioP1;P1;durP2;ratioP2;P2;SDS_P1;SDS_P2;PMS_P1;PMS_P2;Temp;Humidity;BMP_temperature;BMP_pressure;BME280_temperature;BME280_humidity;BME280_pressure;Samples;Min_cycle;Max_cycle;Signal;HPM_P1;HPM_P2
2021/12/10 00:00:44;;;;;;;;;0.00;0.00;;;;;12.95;79.27;99816.00;5077821;27;45376;-73
2021/12/10 00:03:32;;;;;;;;;0.00;0.00;;;;;12.79;79.85;99794.03;5092047;27;45584;-72
2021/12/10 00:06:03;;;;;;;;;0.00;0.00;;;;;12.93;78.64;99807.25;5073708;28;45540;-73
2021/12/10 00:08:32;;;;;;;;;0.00;0.00;;;;;12.90;79.19;99795.00;5076208;27;45974;-72
2021/12/10 00:11:01;;;;;;;;;0.00;0.00;;;;;12.97;78.92;99790.72;5073864;28;45453;-73
2021/12/10 00:13:27;;;;;;;;;0.00;0.00;;;;;13.00;79.45;99809.09;5076424;28;45540;-73
2021/12/10 00:15:55;;;;;;;;;1.00;0.00;;;;;13.00;78.99;99785.47;5076249;28;45433;-72
2021/12/10 00:18:24;;;;;;;;;0.33;0.00;;;;;13.03;78.56;99789.88;5075768;27;45526;-72
2021/12/10 00:20:57;;;;;;;;;0.00;0.00;;;;;13.04;78.50;99770.66;5074372;28;45463;-72
2021/12/10 00:23:23;;;;;;;;;0.00;0.00;;;;;12.98;78.08;99757.50;5074275;28;45541;-72
2021/12/10 00:25:50;;;;;;;;;0.00;0.00;;;;;13.06;78.72;99769.78;5075581;27;45545;-70
2021/12/10 00:28:40;;;;;;;;;0.00;0.00;;;;;13.10;77.94;99768.09;5091437;27;45430;-73
2021/12/10 00:31:19;;;;;;;;;0.00;0.00;;;;;12.99;78.38;99746.13;5074316;28;45574;-71
2021/12/10 00:33:52;;;;;;;;;0.00;0.00;;;;;13.16;77.72;99775.13;5071550;28;45539;-72
2021/12/10 00:36:18;;;;;;;;;0.00;0.00;;;;;13.16;78.05;99772.50;5073614;28;45491;-72
2021/12/10 00:38:45;;;;;;;;;0.00;0.00;;;;;13.19;77.86;99780.38;5075525;28;46158;-72
2021/12/10 00:41:12;;;;;;;;;0.00;0.00;;;;;13.12;78.10;99751.47;5075679;27;45348;-72
2021/12/10 00:43:41;;;;;;;;;1.00;0.00;;;;;13.23;77.91;99775.19;5073290;28;45407;-72
2021/12/10 00:46:07;;;;;;;;;0.33;0.00;;;;;13.25;77.90;99760.31;5075967;27;45372;-73
2021/12/10 00:48:34;;;;;;;;;0.00;0.00;;;;;13.16;77.78;99720.91;5075376;27;46042;-73
2021/12/10 00:51:02;;;;;;;;;0.67;0.00;;;;;13.32;77.36;99746.41;5075469;27;45322;-70
2021/12/10 00:53:27;;;;;;;;;0.00;0.00;;;;;13.37;77.63;99742.91;5076126;27;45564;-73
2021/12/10 00:55:53;;;;;;;;;0.00;0.00;;;;;13.38;77.31;99727.19;5075857;27;45552;-72
2021/12/10 00:58:20;;;;;;;;;1.00;0.00;;;;;12.87;76.88;99660.41;5075525;27;46468;-71
2021/12/10 01:00:50;;;;;;;;;0.00;0.00;;;;;13.42;76.95;99728.09;5075675;28;45504;-72
2021/12/10 01:03:22;;;;;;;;;0.00;0.00;;;;;13.43;76.85;99742.94;5075584;27;45587;-74
2021/12/10 01:05:52;;;;;;;;;0.00;0.00;;;;;13.29;76.84;99709.66;5091416;27;45266;-73
2021/12/10 01:08:18;;;;;;;;;0.00;0.00;;;;;13.47;76.72;99731.63;5072670;28;45427;-73
2021/12/10 01:10:53;;;;;;;;;0.00;0.00;;;;;13.50;76.61;99750.00;5075496;27;45533;-73
2021/12/10 01:13:27;;;;;;;;;0.00;0.00;;;;;13.53;76.35;99732.53;5073192;28;45414;-73
2021/12/10 01:24:50;;;;;;;;;0.00;0.00;;;;;13.56;76.48;99696.69;5072856;28;45376;-73
2021/12/10 01:27:30;;;;;;;;;1.00;0.00;;;;;13.55;76.46;99684.41;5075174;28;45542;-73
2021/12/10 01:29:58;;;;;;;;;0.33;0.00;;;;;13.53;76.78;99711.53;5075428;27;45328;-73
2021/12/10 01:32:30;;;;;;;;;0.00;0.00;;;;;13.51;76.90;99680.94;5075039;28;45491;-74
2021/12/10 01:34:56;;;;;;;;;0.00;0.00;;;;;13.40;77.59;99677.38;5074269;28;45395;-73
2021/12/10 01:37:24;;;;;;;;;0.00;0.00;;;;;13.43;77.65;99680.00;5076016;28;45341;-74
2021/12/10 01:39:50;;;;;;;;;0.67;0.00;;;;;13.42;78.19;99673.00;5094067;27;45453;-74
2021/12/10 01:44:56;;;;;;;;;0.00;0.00;;;;;13.16;79.00;99664.97;5078388;27;45421;-73
2021/12/10 01:47:26;;;;;;;;;0.00;0.00;;;;;13.29;79.07;99686.06;5078719;27;45413;-73
2021/12/10 01:49:52;;;;;;;;;0.00;0.00;;;;;13.24;79.19;99661.50;5078384;27;46214;-73
2021/12/10 01:52:20;;;;;;;;;1.00;0.00;;;;;13.27;78.90;99669.41;5091427;27;45363;-73
2021/12/10 01:54:50;;;;;;;;;0.00;0.00;;;;;13.24;79.37;99677.25;5078586;27;45491;-74
2021/12/10 01:57:17;;;;;;;;;0.00;0.00;;;;;13.23;78.79;99672.00;5078524;27;45528;-73
2021/12/10 01:59:45;;;;;;;;;0.00;0.00;;;;;13.29;79.21;99683.44;5078124;28;46099;-73
2021/12/10 02:02:34;;;;;;;;;0.00;0.00;;;;;13.30;78.89;99669.44;5078177;27;45392;-72
2021/12/10 02:05:00;;;;;;;;;0.00;0.00;;;;;13.35;79.21;99663.34;5075972;28;45480;-73
2021/12/10 02:07:27;;;;;;;;;0.00;0.00;;;;;13.31;78.97;99657.22;5078602;28;45597;-73
2021/12/10 02:09:54;;;;;;;;;0.00;0.00;;;;;13.37;79.24;99664.22;5076744;28;48103;-73
2021/12/10 02:12:21;;;;;;;;;0.00;0.00;;;;;13.39;78.71;99660.75;5078044;27;45486;-73
2021/12/10 02:14:56;;;;;;;;;2.00;0.00;;;;;13.41;78.76;99631.88;5078140;27;45324;-73
2021/12/10 02:17:23;;;;;;;;;0.00;0.00;;;;;13.44;78.56;99650.28;5074554;28;45488;-73
2021/12/10 02:19:49;;;;;;;;;0.00;0.00;;;;;13.33;79.44;99629.25;5077749;27;45511;-72
2021/12/10 02:22:14;;;;;;;;;0.00;0.00;;;;;13.40;79.63;99656.38;5077725;27;45400;-73
2021/12/10 02:24:40;;;;;;;;;0.00;0.00;;;;;13.43;79.51;99648.50;5078511;27;45301;-73
2021/12/10 02:27:08;;;;;;;;;0.00;0.00;;;;;13.37;81.23;99646.75;5080745;27;45346;-75
2021/12/10 02:29:36;;;;;;;;;0.00;0.00;;;;;13.41;81.44;99647.63;5088813;27;45567;-74
2021/12/10 02:32:03;;;;;;;;;0.00;0.00;;;;;13.45;79.04;99652.00;5081028;27;45313;-73
2021/12/10 02:34:29;;;;;;;;;0.33;0.00;;;;;13.45;79.17;99657.25;5080040;27;45455;-74
2021/12/10 02:36:54;;;;;;;;;0.00;0.00;;;;;13.48;79.01;99657.28;5078362;28;45595;-73
2021/12/10 02:39:24;;;;;;;;;1.00;0.00;;;;;13.47;78.84;99645.06;5079003;28;45370;-72
2021/12/10 02:41:50;;;;;;;;;0.00;0.00;;;;;13.51;78.39;99631.06;5079327;27;45208;-74
2021/12/10 02:44:21;;;;;;;;;1.00;0.00;;;;;13.55;78.29;99632.84;5079321;27;45955;-74
2021/12/10 02:46:47;;;;;;;;;0.00;0.00;;;;;13.59;78.32;99667.81;5079338;28;45247;-73
2021/12/10 02:49:16;;;;;;;;;0.00;0.00;;;;;13.64;77.93;99648.59;5077962;27;46142;-73
2021/12/10 02:51:42;;;;;;;;;0.00;0.00;;;;;13.65;77.76;99624.09;5078914;27;45587;-73
2021/12/10 02:54:12;;;;;;;;;0.00;0.00;;;;;13.59;77.57;99613.59;5078908;27;45437;-74
2021/12/10 02:56:39;;;;;;;;;0.00;0.00;;;;;13.56;77.40;99629.31;5078039;27;45488;-73
2021/12/10 02:59:05;;;;;;;;;0.00;0.00;;;;;13.70;77.92;99637.22;5078717;27;46061;-73
2021/12/10 03:01:40;;;;;;;;;0.00;0.00;;;;;13.70;77.73;99624.09;5079116;27;45365;-73
2021/12/10 03:04:10;;;;;;;;;1.00;0.00;;;;;13.59;78.45;99617.94;5078874;28;45460;-73
2021/12/10 03:06:50;;;;;;;;;0.00;0.00;;;;;13.56;78.80;99626.69;5079120;27;45358;-73
2021/12/10 03:09:18;;;;;;;;;0.00;0.00;;;;;13.57;78.64;99603.94;5078706;28;45570;-74
2021/12/10 03:11:48;;;;;;;;;0.00;0.00;;;;;13.60;78.55;99624.97;5078459;27;45497;-73
2021/12/10 03:14:19;;;;;;;;;0.00;0.00;;;;;13.70;77.68;99592.63;5078798;27;45527;-73
2021/12/10 03:16:46;;;;;;;;;0.00;0.00;;;;;13.56;78.09;99591.72;5078986;27;45425;-74
2021/12/10 03:19:12;;;;;;;;;0.00;0.00;;;;;13.61;78.26;99596.09;5078374;27;45488;-72
2021/12/10 03:21:39;;;;;;;;;0.33;0.00;;;;;13.66;77.77;99588.22;5078616;27;45364;-73
2021/12/10 03:24:06;;;;;;;;;0.00;0.00;;;;;13.67;78.11;99601.38;5078542;28;45447;-73
2021/12/10 03:26:32;;;;;;;;;1.00;0.00;;;;;13.70;78.27;99598.72;5078874;28;45232;-73
2021/12/10 03:28:57;;;;;;;;;0.67;0.00;;;;;13.71;78.06;99618.88;5078291;27;45468;-73
2021/12/10 03:31:25;;;;;;;;;0.00;0.00;;;;;13.71;78.06;99605.75;5078578;27;45343;-73
2021/12/10 03:33:54;;;;;;;;;0.00;0.00;;;;;13.72;78.20;99614.50;5078554;27;45377;-73
2021/12/10 03:36:21;;;;;;;;;0.00;0.00;;;;;13.71;77.70;99555.88;5078658;27;45512;-73
2021/12/10 03:38:48;;;;;;;;;0.00;0.00;;;;;13.70;77.95;99614.47;5078051;27;46211;-73
2021/12/10 03:41:15;;;;;;;;;0.00;0.00;;;;;13.61;78.39;99603.97;5078400;27;45201;-73
2021/12/10 03:43:42;;;;;;;;;1.00;0.00;;;;;13.67;78.61;99611.88;5077093;28;45457;-73
2021/12/10 03:46:09;;;;;;;;;0.00;0.00;;;;;13.66;78.60;99598.72;5078331;27;45510;-73
2021/12/10 03:48:41;;;;;;;;;0.00;0.00;;;;;13.62;78.50;99592.59;5078276;27;45541;-70
2021/12/10 03:51:14;;;;;;;;;0.00;0.00;;;;;13.62;78.90;99599.59;5078174;28;45432;-73
2021/12/10 03:53:40;;;;;;;;;0.00;0.00;;;;;13.64;79.19;99595.22;5078237;28;45413;-72
2021/12/10 03:56:10;;;;;;;;;0.67;0.00;;;;;13.60;79.42;99612.72;5078127;28;45416;-71
2021/12/10 03:58:35;;;;;;;;;0.00;0.00;;;;;13.58;79.02;99590.84;5078066;27;45527;-70
2021/12/10 04:01:05;;;;;;;;;0.00;0.00;;;;;13.59;79.09;99582.09;5076896;27;45283;-74
2021/12/10 04:03:32;;;;;;;;;0.00;0.00;;;;;13.60;79.08;99596.97;5078336;27;45533;-73
2021/12/10 04:05:59;;;;;;;;;0.00;0.00;;;;;13.64;78.91;99588.22;5078149;28;45549;-73
2021/12/10 04:08:25;;;;;;;;;0.00;0.00;;;;;13.63;79.33;99576.00;5077772;27;46041;-73
2021/12/10 04:10:53;;;;;;;;;0.00;0.00;;;;;13.64;79.14;99601.34;5077967;27;45558;-73
2021/12/10 04:13:20;;;;;;;;;0.00;0.00;;;;;13.63;79.86;99593.50;5078050;27;45492;-73
2021/12/10 04:15:46;;;;;;;;;0.00;0.00;;;;;13.56;79.28;99599.59;5078102;27;45215;-73
2021/12/10 04:18:13;;;;;;;;;0.00;0.00;;;;;13.59;79.90;99602.19;5077607;27;45505;-72
2021/12/10 04:20:40;;;;;;;;;0.00;0.00;;;;;13.56;79.52;99610.09;5077780;27;45321;-74
2021/12/10 04:23:10;;;;;;;;;0.33;0.00;;;;;13.48;79.37;99594.31;5078400;27;45176;-74
2021/12/10 04:25:37;;;;;;;;;0.00;0.00;;;;;13.60;79.77;99619.72;5078034;28;45484;-73
2021/12/10 04:28:07;;;;;;;;;0.00;0.00;;;;;13.57;80.91;99641.59;5077760;28;46119;-74
2021/12/10 04:30:39;;;;;;;;;1.00;0.00;;;;;13.57;80.34;99610.09;5077969;27;45496;-74
2021/12/10 04:33:09;;;;;;;;;0.00;0.00;;;;;13.61;80.73;99655.56;5077876;27;45414;-73
2021/12/10 04:35:36;;;;;;;;;0.00;0.00;;;;;13.60;80.88;99659.94;5077999;27;45315;-73
2021/12/10 04:38:04;;;;;;;;;0.00;0.00;;;;;13.46;79.61;99690.50;5077346;27;46229;-74
2021/12/10 04:40:30;;;;;;;;;1.00;0.67;;;;;13.16;76.56;99699.94;5077357;27;45438;-74
2021/12/10 04:42:55;;;;;;;;;4.33;2.00;;;;;12.92;76.88;99745.22;5077244;27;45429;-73
2021/12/10 04:45:21;;;;;;;;;4.67;1.00;;;;;12.75;76.94;99742.47;5077457;28;45276;-73
2021/12/10 04:47:48;;;;;;;;;3.33;2.00;;;;;12.64;76.82;99759.84;5077212;27;46083;-73
2021/12/10 04:50:16;;;;;;;;;4.67;1.67;;;;;12.46;76.05;99753.56;5077632;27;45588;-76
2021/12/10 04:52:42;;;;;;;;;6.33;2.67;;;;;12.37;76.89;99770.94;5078383;27;45494;-76
2021/12/10 04:55:10;;;;;;;;;3.00;2.00;;;;;12.31;77.44;99784.84;5078561;27;45830;-70
2021/12/10 04:57:36;;;;;;;;;5.33;4.00;;;;;12.23;77.46;99773.41;5078024;27;45460;-73
2021/12/10 05:00:06;;;;;;;;;5.67;3.33;;;;;12.18;77.68;99782.97;5077547;27;45358;-74
2021/12/10 05:02:34;;;;;;;;;7.00;4.33;;;;;12.04;78.06;99774.97;5077442;27;45485;-73
2021/12/10 05:04:59;;;;;;;;;5.00;3.67;;;;;12.04;78.47;99786.28;5077614;27;45567;-73
2021/12/10 05:07:29;;;;;;;;;24.75;22.00;;;;;11.99;78.48;99795.81;5077227;27;45492;-72
2021/12/10 05:09:55;;;;;;;;;4.00;4.00;;;;;12.01;79.18;99816.78;5077697;27;45333;-73
2021/12/10 05:12:20;;;;;;;;;4.00;4.00;;;;;12.03;79.11;99813.31;5078533;27;45409;-73
2021/12/10 05:14:46;;;;;;;;;3.00;1.00;;;;;12.05;79.21;99829.06;5081192;28;45429;-72
2021/12/10 05:17:11;;;;;;;;;5.00;3.00;;;;;12.05;79.38;99832.53;5081411;27;45490;-72
2021/12/10 05:19:39;;;;;;;;;3.00;1.00;;;;;11.95;80.56;99864.69;5082627;27;45327;-73
2021/12/10 05:22:08;;;;;;;;;1.67;1.33;;;;;11.92;80.33;99848.97;5082786;27;45523;-72
2021/12/10 05:24:34;;;;;;;;;3.00;2.00;;;;;11.90;79.74;99893.44;5082577;28;45430;-73
2021/12/10 05:27:00;;;;;;;;;2.00;1.00;;;;;11.65;80.62;99893.91;5081719;27;45979;-74
2021/12/10 05:29:31;;;;;;;;;2.00;1.00;;;;;11.60;79.43;99922.63;5083299;27;45546;-76
2021/12/10 05:31:59;;;;;;;;;5.00;2.67;;;;;11.63;79.55;99929.63;5085855;27;45433;-75
2021/12/10 05:34:24;;;;;;;;;4.00;2.67;;;;;11.57;78.60;99943.47;5083629;27;45176;-74
2021/12/10 05:36:50;;;;;;;;;3.67;1.33;;;;;11.54;78.59;99927.75;5081685;27;46123;-74
2021/12/10 05:39:21;;;;;;;;;21.75;19.25;;;;;11.43;78.65;99917.09;5081274;28;45429;-73
2021/12/10 05:41:47;;;;;;;;;5.33;3.00;;;;;11.49;78.14;99940.72;5080766;27;45409;-74
2021/12/10 05:44:12;;;;;;;;;8.67;5.33;;;;;11.50;78.56;99941.66;5081284;28;45424;-73
2021/12/10 05:46:39;;;;;;;;;3.67;2.00;;;;;11.46;78.15;99935.47;5080429;28;45480;-74
2021/12/10 05:49:05;;;;;;;;;4.33;3.33;;;;;11.47;78.47;99944.19;5079473;28;45563;-73
2021/12/10 05:51:31;;;;;;;;;5.00;3.00;;;;;11.49;78.18;99956.44;5079062;27;45598;-73
2021/12/10 05:53:56;;;;;;;;;4.00;2.33;;;;;11.50;78.34;99944.25;5079060;27;45553;-73
2021/12/10 05:56:22;;;;;;;;;7.33;4.00;;;;;11.51;78.48;99946.00;5075723;28;45576;-73
2021/12/10 05:58:47;;;;;;;;;7.67;3.00;;;;;11.41;78.48;99941.47;5078373;27;45520;-72
2021/12/10 06:01:16;;;;;;;;;11.00;3.67;;;;;11.53;78.08;99962.59;5078626;27;45491;-74
2021/12/10 06:03:51;;;;;;;;;7.00;5.00;;;;;11.54;77.75;99930.38;5079099;28;45482;-74
2021/12/10 06:06:17;;;;;;;;;5.00;3.00;;;;;11.51;77.35;99941.63;5070781;28;46591;-71
2021/12/10 06:08:43;;;;;;;;;5.00;3.00;;;;;11.55;77.73;99973.97;5074796;27;45643;-71
2021/12/10 06:11:08;;;;;;;;;5.33;4.00;;;;;11.49;77.08;99960.78;5077449;27;45510;-71
2021/12/10 06:13:34;;;;;;;;;30.50;28.75;;;;;11.51;76.90;99952.09;5075896;28;45445;-71
2021/12/10 06:16:00;;;;;;;;;8.67;6.00;;;;;11.61;76.69;99971.44;5076724;27;46617;-71
2021/12/10 06:18:25;;;;;;;;;5.00;3.33;;;;;11.60;76.78;99974.94;5076850;27;45376;-71
2021/12/10 06:20:53;;;;;;;;;9.00;6.00;;;;;11.64;76.70;99986.31;5077153;27;45442;-72
2021/12/10 06:23:19;;;;;;;;;13.67;5.00;;;;;11.64;76.49;99960.16;5077149;27;45511;-71
2021/12/10 06:25:46;;;;;;;;;6.67;4.67;;;;;11.64;76.08;99968.00;5077550;28;46151;-71
2021/12/10 06:28:12;;;;;;;;;5.00;4.00;;;;;11.66;76.80;99963.69;5078445;28;45323;-70
2021/12/10 06:30:40;;;;;;;;;7.67;5.67;;;;;11.64;76.03;99984.59;5078876;27;45619;-70
2021/12/10 06:33:09;;;;;;;;;5.00;3.67;;;;;11.64;76.62;99991.53;5078280;27;45427;-70
2021/12/10 06:35:37;;;;;;;;;6.33;4.33;;;;;11.64;76.42;99984.59;5077845;28;46369;-69
2021/12/10 06:38:03;;;;;;;;;7.33;4.67;;;;;11.65;76.29;99983.72;5077896;27;45342;-70
2021/12/10 06:40:32;;;;;;;;;5.00;4.00;;;;;11.68;76.48;99989.03;5078123;27;45487;-73
2021/12/10 06:42:58;;;;;;;;;8.67;5.33;;;;;11.65;76.61;99991.56;5078262;27;45532;-70
2021/12/10 06:45:26;;;;;;;;;9.33;6.00;;;;;11.65;76.57;99990.69;5077609;27;45489;-70
2021/12/10 06:47:58;;;;;;;;;10.33;7.33;;;;;11.63;77.03;100019.44;5077809;27;45403;-70
2021/12/10 06:50:26;;;;;;;;;7.00;4.00;;;;;11.68;77.13;100001.22;5077576;28;45580;-70
2021/12/10 06:52:53;;;;;;;;;4.67;4.00;;;;;11.72;76.58;100009.16;5077894;27;45480;-70
2021/12/10 06:55:19;;;;;;;;;9.33;5.67;;;;;11.57;76.97;99990.56;5077593;27;45420;-70
2021/12/10 06:57:45;;;;;;;;;11.33;5.00;;;;;11.67;76.43;99996.84;5076192;28;45473;-70
2021/12/10 07:00:20;;;;;;;;;10.33;5.67;;;;;11.76;76.76;100017.94;5078269;27;45464;-70
2021/12/10 07:02:46;;;;;;;;;12.33;8.00;;;;;11.68;76.77;99999.50;5077670;28;45325;-72
2021/12/10 07:05:12;;;;;;;;;9.33;7.00;;;;;11.78;76.80;100004.84;5077664;27;45464;-71
2021/12/10 07:07:39;;;;;;;;;11.67;6.00;;;;;11.79;77.12;100006.63;5077747;27;45409;-70
2021/12/10 07:10:07;;;;;;;;;14.00;7.00;;;;;11.82;77.21;100011.94;5076563;28;45317;-71
2021/12/10 07:12:37;;;;;;;;;7.00;7.00;;;;;11.75;77.30;100010.94;5077895;27;45518;-71
2021/12/10 07:15:06;;;;;;;;;11.67;6.00;;;;;11.86;77.02;100025.06;5077282;27;45567;-70
2021/12/10 07:17:32;;;;;;;;;9.67;7.00;;;;;11.88;77.32;100012.03;5077145;27;45565;-71
2021/12/10 07:19:59;;;;;;;;;11.67;7.00;;;;;11.87;77.02;100021.59;5077753;28;45464;-70
2021/12/10 07:22:25;;;;;;;;;6.67;4.00;;;;;11.89;76.32;100029.50;5077276;27;45472;-71
2021/12/10 07:24:50;;;;;;;;;9.00;7.33;;;;;11.91;76.90;100030.41;5092686;27;45570;-71
2021/12/10 07:27:16;;;;;;;;;11.00;6.00;;;;;11.88;76.93;100035.59;5077199;28;45411;-71
2021/12/10 07:29:42;;;;;;;;;11.67;5.00;;;;;11.91;76.65;100031.28;5077338;28;45527;-70
2021/12/10 07:32:09;;;;;;;;;16.00;9.33;;;;;11.92;75.93;100034.81;5077494;27;45304;-72
2021/12/10 07:34:34;;;;;;;;;12.67;8.00;;;;;11.95;76.45;100040.06;5077168;27;46219;-71
2021/12/10 07:37:00;;;;;;;;;12.67;9.33;;;;;11.91;75.67;100073.16;5077057;28;45413;-70
2021/12/10 07:39:25;;;;;;;;;7.33;3.67;;;;;11.97;75.14;100087.22;5077406;28;45370;-71
2021/12/10 07:41:51;;;;;;;;;9.00;6.67;;;;;11.90;74.22;100099.34;5077030;28;45546;-71
2021/12/10 07:44:17;;;;;;;;;7.67;5.00;;;;;11.87;74.17;100099.22;5092248;27;46308;-71
2021/12/10 07:46:43;;;;;;;;;6.33;3.00;;;;;11.85;71.24;100112.28;5077368;28;45489;-70
2021/12/10 07:49:15;;;;;;;;;3.33;1.33;;;;;11.69;70.09;100092.81;5077222;27;45441;-69
2021/12/10 07:51:44;;;;;;;;;3.00;2.00;;;;;11.74;69.42;100113.84;5077808;27;45306;-70
2021/12/10 07:54:11;;;;;;;;;2.33;2.00;;;;;11.78;70.07;100127.84;5076562;27;46230;-69
2021/12/10 07:56:37;;;;;;;;;6.67;6.33;;;;;11.74;70.41;100117.34;5077071;27;45401;-70
2021/12/10 07:59:04;;;;;;;;;5.67;3.67;;;;;11.66;70.68;100094.53;5076850;27;45579;-70
2021/12/10 08:01:31;;;;;;;;;8.67;5.00;;;;;11.76;69.67;100104.28;5092163;27;45654;-70
2021/12/10 08:03:58;;;;;;;;;7.00;3.33;;;;;11.78;70.93;100115.66;5076586;27;45413;-69
2021/12/10 08:06:26;;;;;;;;;6.00;3.00;;;;;11.77;70.55;100126.09;5076672;27;45373;-70
2021/12/10 08:08:52;;;;;;;;;5.33;3.33;;;;;11.75;71.40;100113.84;5076659;27;45654;-70
2021/12/10 08:11:19;;;;;;;;;12.00;8.00;;;;;11.77;71.73;100123.47;5077139;28;45393;-70
2021/12/10 08:13:45;;;;;;;;;5.67;3.33;;;;;11.82;72.38;100103.53;5076955;27;45404;-71
2021/12/10 08:16:12;;;;;;;;;10.67;5.00;;;;;11.86;72.26;100107.97;5076573;27;45492;-71
2021/12/10 08:18:38;;;;;;;;;6.33;5.00;;;;;11.89;72.31;100116.75;5076417;28;45596;-71
2021/12/10 08:21:05;;;;;;;;;12.33;6.00;;;;;11.93;72.39;100102.00;5075836;27;45461;-72
2021/12/10 08:23:32;;;;;;;;;5.67;4.33;;;;;11.97;73.19;100100.31;5077502;27;46160;-73
2021/12/10 08:26:02;;;;;;;;;8.33;5.00;;;;;11.98;72.57;100086.34;5077678;27;45441;-73
2021/12/10 08:28:28;;;;;;;;;10.33;7.00;;;;;11.89;73.16;100068.75;5094255;27;45597;-72
2021/12/10 08:30:55;;;;;;;;;15.33;11.33;;;;;12.04;73.13;100073.41;5079061;27;45238;-72
2021/12/10 08:33:22;;;;;;;;;11.33;7.67;;;;;12.05;73.53;100093.47;5078649;27;46182;-72
2021/12/10 08:35:52;;;;;;;;;5.33;5.00;;;;;12.07;73.15;100084.78;5078268;27;45505;-71
2021/12/10 08:38:18;;;;;;;;;13.00;5.67;;;;;12.12;73.69;100080.50;5078071;27;45438;-71
2021/12/10 08:40:57;;;;;;;;;5.00;5.00;;;;;12.13;73.83;100092.72;5077642;27;45500;-73
2021/12/10 08:43:24;;;;;;;;;8.33;5.67;;;;;12.13;73.23;100103.19;5077580;27;46072;-74
2021/12/10 08:45:52;;;;;;;;;13.00;8.33;;;;;12.19;73.65;100112.03;5076432;27;45503;-71
2021/12/10 08:48:20;;;;;;;;;12.00;5.00;;;;;12.20;73.71;100103.31;5073580;28;45501;-74
2021/12/10 08:50:48;;;;;;;;;8.33;6.00;;;;;12.20;73.38;100116.41;5077654;28;45275;-72
2021/12/10 08:53:14;;;;;;;;;12.00;5.00;;;;;12.22;73.47;100125.19;5076508;27;45497;-73
2021/12/10 08:55:48;;;;;;;;;9.33;6.67;;;;;12.24;73.60;100137.44;5077098;27;45362;-73
2021/12/10 08:58:14;;;;;;;;;8.67;5.00;;;;;12.20;73.06;100127.75;5070781;27;45550;-68
2021/12/10 09:00:45;;;;;;;;;5.33;4.33;;;;;12.16;72.76;100143.41;5055712;28;45320;-70
2021/12/10 09:03:11;;;;;;;;;4.00;3.00;;;;;12.13;73.35;100168.66;5055544;28;46263;-70
2021/12/10 09:05:37;;;;;;;;;6.00;4.67;;;;;12.12;73.16;100184.38;5055299;28;45481;-69
2021/12/10 09:08:05;;;;;;;;;6.33;5.00;;;;;12.09;72.41;100182.56;5055680;28;45813;-67
2021/12/10 09:10:34;;;;;;;;;5.00;2.67;;;;;12.00;72.54;100165.81;5055828;28;45481;-68
2021/12/10 09:13:00;;;;;;;;;7.67;6.00;;;;;12.04;72.51;100165.03;5058551;28;46325;-68
2021/12/10 09:15:28;;;;;;;;;8.00;4.00;;;;;12.02;72.33;100157.13;5074899;27;46619;-69
2021/12/10 09:17:57;;;;;;;;;7.33;5.33;;;;;11.93;72.62;100139.50;5075894;27;46308;-69
2021/12/10 09:20:29;;;;;;;;;6.00;4.00;;;;;12.01;72.27;100150.13;5075920;27;45535;-70
2021/12/10 09:22:54;;;;;;;;;7.67;4.33;;;;;12.05;72.43;100151.94;5075736;27;46243;-69
2021/12/10 09:25:20;;;;;;;;;6.00;3.33;;;;;12.08;71.42;100170.34;5075975;28;45459;-69
2021/12/10 09:27:47;;;;;;;;;12.00;4.67;;;;;12.08;72.59;100164.22;5071553;27;45543;-68
2021/12/10 09:30:16;;;;;;;;;6.33;5.00;;;;;12.10;72.11;100158.16;5071664;28;45442;-68
2021/12/10 09:32:44;;;;;;;;;9.33;5.33;;;;;12.12;72.13;100169.53;5075500;27;45466;-69
2021/12/10 09:35:13;;;;;;;;;5.00;4.00;;;;;12.08;70.12;100165.09;5075591;27;45469;-70
2021/12/10 09:37:40;;;;;;;;;8.67;4.00;;;;;12.13;71.55;100170.41;5075918;27;45346;-71
2021/12/10 09:40:13;;;;;;;;;4.67;3.33;;;;;12.14;70.70;100177.41;5076170;28;45364;-71
2021/12/10 09:42:40;;;;;;;;;7.00;5.67;;;;;12.20;71.00;100181.88;5091853;27;46883;-71
2021/12/10 09:45:10;;;;;;;;;10.33;5.00;;;;;12.21;70.36;100187.13;5075982;27;45452;-73
2021/12/10 09:47:40;;;;;;;;;5.33;3.67;;;;;12.07;70.37;100163.31;5076678;27;45235;-73
2021/12/10 09:50:08;;;;;;;;;9.00;5.00;;;;;12.27;70.34;100186.34;5076028;27;45521;-71
2021/12/10 09:52:35;;;;;;;;;10.00;4.33;;;;;12.26;70.48;100182.00;5075908;27;45568;-72
2021/12/10 09:55:11;;;;;;;;;6.33;3.67;;;;;12.22;70.52;100174.94;5076456;27;45417;-71
2021/12/10 09:57:37;;;;;;;;;7.00;3.67;;;;;12.25;69.02;100194.19;5076570;28;45393;-73
2021/12/10 10:00:15;;;;;;;;;5.00;3.00;;;;;12.30;70.29;100205.63;5078234;27;45474;-74
2021/12/10 10:02:42;;;;;;;;;8.33;5.00;;;;;12.31;70.36;100201.25;5078274;28;45409;-72
2021/12/10 10:05:09;;;;;;;;;5.67;4.00;;;;;12.29;70.05;100224.81;5079604;27;45321;-73
2021/12/10 10:07:36;;;;;;;;;8.67;4.00;;;;;12.26;70.22;100229.13;5079906;27;45437;-72
2021/12/10 10:10:14;;;;;;;;;5.33;4.33;;;;;12.19;69.21;100203.66;5079909;27;45222;-73
2021/12/10 10:12:43;;;;;;;;;5.00;3.67;;;;;12.28;68.90;100233.53;5078298;28;45416;-72
2021/12/10 10:15:14;;;;;;;;;3.67;2.00;;;;;12.22;68.35;100240.41;5079680;27;45433;-72
2021/12/10 10:17:40;;;;;;;;;8.33;3.00;;;;;12.17;68.99;100228.94;5079741;27;45475;-72
2021/12/10 10:20:09;;;;;;;;;4.00;1.67;;;;;12.07;68.12;100214.81;5079821;27;45391;-72
2021/12/10 10:22:34;;;;;;;;;5.00;2.00;;;;;12.12;68.65;100227.13;5079574;28;46039;-72
2021/12/10 10:25:00;;;;;;;;;4.33;3.67;;;;;12.13;68.71;100220.16;5079255;27;45533;-73
2021/12/10 10:27:30;;;;;;;;;2.00;1.00;;;;;12.07;68.17;100218.28;5079758;28;45461;-72
2021/12/10 10:30:25;;;;;;;;;5.67;1.00;;;;;12.03;67.71;100206.00;5079747;27;45517;-72
2021/12/10 10:32:53;;;;;;;;;3.33;2.00;;;;;12.00;68.13;100194.63;5074513;28;46498;-70
2021/12/10 10:35:27;;;;;;;;;3.00;2.00;;;;;12.00;68.65;100190.25;5073588;28;45967;-70
2021/12/10 10:37:56;;;;;;;;;3.33;1.00;;;;;12.00;68.35;100177.16;5057945;28;45276;-69
2021/12/10 10:40:28;;;;;;;;;3.67;1.33;;;;;11.98;68.37;100164.88;5057915;28;45423;-72
2021/12/10 10:42:54;;;;;;;;;7.67;6.33;;;;;11.96;68.63;100171.81;5057026;28;45408;-72
2021/12/10 10:45:29;;;;;;;;;2.67;2.00;;;;;11.80;68.28;100150.59;5058001;28;45694;-73
2021/12/10 10:47:57;;;;;;;;;1.00;1.00;;;;;11.93;68.15;100175.28;5061209;28;45802;-70
2021/12/10 10:50:50;;;;;;;;;7.67;6.67;;;;;11.96;69.34;100201.53;5070356;27;45614;-68
2021/12/10 10:53:20;;;;;;;;;4.33;1.67;;;;;11.78;69.77;100172.34;5062682;28;46264;-72
2021/12/10 10:56:00;;;;;;;;;2.67;2.33;;;;;11.82;71.06;100219.56;5062148;28;45535;-71
2021/12/10 10:58:30;;;;;;;;;4.33;2.00;;;;;11.72;72.43;100222.84;5057538;28;45571;-71
2021/12/10 11:01:21;;;;;;;;;5.00;3.00;;;;;11.64;73.72;100238.38;5069114;27;45563;-71
2021/12/10 11:03:57;;;;;;;;;3.33;2.67;;;;;11.60;73.94;100241.78;5059807;28;46177;-71
2021/12/10 11:06:48;;;;;;;;;6.00;4.00;;;;;11.50;74.50;100248.56;5057537;27;45899;-70
2021/12/10 11:09:21;;;;;;;;;7.00;4.00;;;;;11.52;74.41;100236.38;5060425;28;45457;-71
2021/12/10 11:11:54;;;;;;;;;2.33;2.33;;;;;11.49;75.48;100238.06;5062585;27;45544;-71
2021/12/10 11:14:27;;;;;;;;;3.33;2.67;;;;;11.50;75.63;100250.28;5065263;27;46052;-70
2021/12/10 11:17:04;;;;;;;;;4.33;3.33;;;;;11.62;75.68;100261.03;5057722;28;45617;-71
2021/12/10 11:19:30;;;;;;;;;3.33;2.33;;;;;11.66;75.59;100247.16;5060202;28;45500;-72
2021/12/10 11:22:03;;;;;;;;;7.00;3.00;;;;;11.81;74.79;100257.03;5061247;28;45529;-73
2021/12/10 11:24:48;;;;;;;;;11.33;7.33;;;;;11.89;74.37;100249.38;5061809;27;45533;-72
2021/12/10 11:27:17;;;;;;;;;8.67;4.00;;;;;11.94;74.75;100232.91;5085357;27;45531;-72
2021/12/10 11:29:51;;;;;;;;;7.00;3.00;;;;;11.91;74.08;100222.34;5065856;27;45586;-71
2021/12/10 11:32:39;;;;;;;;;6.33;5.00;;;;;11.89;73.34;100213.59;5063007;28;45916;-71
2021/12/10 11:35:08;;;;;;;;;6.00;5.00;;;;;11.91;73.72;100204.03;5059547;28;46223;-71
2021/12/10 11:37:45;;;;;;;;;4.33;3.67;;;;;11.88;72.16;100203.97;5069440;28;45201;-71
2021/12/10 11:40:30;;;;;;;;;5.33;5.00;;;;;11.94;71.07;100193.63;5071796;28;45429;-72
2021/12/10 11:43:01;;;;;;;;;3.67;2.00;;;;;11.96;70.75;100187.53;5060502;28;45381;-72
2021/12/10 11:45:50;;;;;;;;;6.67;4.33;;;;;11.90;70.71;100193.56;5060554;28;46440;-71
2021/12/10 11:48:25;;;;;;;;;7.67;6.33;;;;;11.88;71.66;100192.63;5062883;28;45501;-73